sensor_id;sensor_type;location;lat;lon;timestamp;pressure;altitude;pressure_sealevel;temperature;humidity
46682;BME280;34101;53.430;-2.224;2022-08-18T00:01:58;157112.42;;;18.64;72.84
46682;BME280;34101;53.430;-2.224;2022-08-18T00:04:27;157107.79;;;18.62;72.67
46682;BME280;34101;53.430;-2.224;2022-08-18T00:06:54;157106.57;;;18.61;72.80
46682;BME280;34101;53.430;-2.224;2022-08-18T00:09:22;157116.40;;;18.65;72.86
46682;BME280;34101;53.430;-2.224;2022-08-18T00:11:49;157111.69;;;18.63;72.79
46682;BME280;34101;53.430;-2.224;2022-08-18T00:14:18;157112.34;;;18.64;73.02
46682;BME280;34101;53.430;-2.224;2022-08-18T00:16:46;157109.17;;;18.62;73.09
46682;BME280;34101;53.430;-2.224;2022-08-18T00:19:13;157124.28;;;18.69;73.15
46682;BME280;34101;53.430;-2.224;2022-08-18T00:21:40;157121.03;;;18.67;72.89
46682;BME280;34101;53.430;-2.224;2022-08-18T00:24:08;157120.30;;;18.67;73.15
46682;BME280;34101;53.430;-2.224;2022-08-18T00:26:35;157116.65;;;18.65;73.18
46682;BME280;34101;53.430;-2.224;2022-08-18T00:29:03;157121.19;;;18.67;73.15
46682;BME280;34101;53.430;-2.224;2022-08-18T00:31:30;157129.48;;;18.71;73.31
46682;BME280;34101;53.430;-2.224;2022-08-18T00:33:58;157141.50;;;18.75;73.49
46682;BME280;34101;53.430;-2.224;2022-08-18T00:36:25;157153.28;;;18.80;73.03
46682;BME280;34101;53.430;-2.224;2022-08-18T00:38:52;157163.35;;;18.84;72.89
46682;BME280;34101;53.430;-2.224;2022-08-18T00:41:20;157158.56;;;18.82;72.35
46682;BME280;34101;53.430;-2.224;2022-08-18T00:43:49;157143.86;;;18.76;73.02
46682;BME280;34101;53.430;-2.224;2022-08-18T00:46:20;157137.52;;;18.74;72.81
46682;BME280;34101;53.430;-2.224;2022-08-18T00:48:50;157133.38;;;18.72;72.90
46682;BME280;34101;53.430;-2.224;2022-08-18T00:51:21;157104.79;;;18.61;73.20
46682;BME280;34101;53.430;-2.224;2022-08-18T00:53:57;157086.43;;;18.53;73.36
46682;BME280;34101;53.430;-2.224;2022-08-18T00:56:29;157051.75;;;18.39;73.34
46682;BME280;34101;53.430;-2.224;2022-08-18T00:59:00;157035.02;;;18.33;73.83
46682;BME280;34101;53.430;-2.224;2022-08-18T01:01:31;157022.92;;;18.28;74.33
46682;BME280;34101;53.430;-2.224;2022-08-18T01:04:04;157014.80;;;18.25;74.45
46682;BME280;34101;53.430;-2.224;2022-08-18T01:06:37;156989.79;;;18.15;75.05
46682;BME280;34101;53.430;-2.224;2022-08-18T01:09:05;156981.75;;;18.11;75.37
46682;BME280;34101;53.430;-2.224;2022-08-18T01:11:33;156975.58;;;18.09;75.72
46682;BME280;34101;53.430;-2.224;2022-08-18T01:14:03;156968.92;;;18.06;75.91
46682;BME280;34101;53.430;-2.224;2022-08-18T01:16:30;156961.53;;;18.03;76.32
46682;BME280;34101;53.430;-2.224;2022-08-18T01:18:57;156983.29;;;18.12;76.33
46682;BME280;34101;53.430;-2.224;2022-08-18T01:21:28;156991.01;;;18.15;76.15
46682;BME280;34101;53.430;-2.224;2022-08-18T01:23:57;157003.68;;;18.20;76.33
46682;BME280;34101;53.430;-2.224;2022-08-18T01:26:28;157010.09;;;18.23;76.29
46682;BME280;34101;53.430;-2.224;2022-08-18T01:29:03;157013.58;;;18.24;75.94
46682;BME280;34101;53.430;-2.224;2022-08-18T01:31:35;157023.90;;;18.28;76.18
46682;BME280;34101;53.430;-2.224;2022-08-18T01:34:03;157017.89;;;18.26;75.94
46682;BME280;34101;53.430;-2.224;2022-08-18T01:36:30;157008.22;;;18.22;76.06
46682;BME280;34101;53.430;-2.224;2022-08-18T01:38:59;157010.82;;;18.23;76.22
46682;BME280;34101;53.430;-2.224;2022-08-18T01:41:26;157014.56;;;18.25;76.50
46682;BME280;34101;53.430;-2.224;2022-08-18T01:43:53;157010.42;;;18.23;76.47
46682;BME280;34101;53.430;-2.224;2022-08-18T01:46:21;157002.21;;;18.20;76.68
46682;BME280;34101;53.430;-2.224;2022-08-18T01:48:50;157004.81;;;18.21;76.87
46682;BME280;34101;53.430;-2.224;2022-08-18T01:51:17;156981.26;;;18.11;76.87
46682;BME280;34101;53.430;-2.224;2022-08-18T01:53:44;156962.26;;;18.04;77.39
46682;BME280;34101;53.430;-2.224;2022-08-18T01:56:11;156967.54;;;18.06;77.76
46682;BME280;34101;53.430;-2.224;2022-08-18T01:58:38;156982.24;;;18.12;77.55
46682;BME280;34101;53.430;-2.224;2022-08-18T02:01:06;156998.64;;;18.18;77.52
46682;BME280;34101;53.430;-2.224;2022-08-18T02:03:37;157022.03;;;18.28;77.49
46682;BME280;34101;53.430;-2.224;2022-08-18T02:06:08;157044.52;;;18.37;77.31
46682;BME280;34101;53.430;-2.224;2022-08-18T02:08:36;157067.10;;;18.46;76.51
46682;BME280;34101;53.430;-2.224;2022-08-18T02:11:05;157071.00;;;18.47;76.60
46682;BME280;34101;53.430;-2.224;2022-08-18T02:13:33;157075.55;;;18.49;75.82
46682;BME280;34101;53.430;-2.224;2022-08-18T02:16:01;157084.89;;;18.53;76.02
46682;BME280;34101;53.430;-2.224;2022-08-18T02:18:31;157072.95;;;18.48;76.42
46682;BME280;34101;53.430;-2.224;2022-08-18T02:21:06;157064.26;;;18.44;75.63
46682;BME280;34101;53.430;-2.224;2022-08-18T02:23:34;157054.68;;;18.41;75.64
46682;BME280;34101;53.430;-2.224;2022-08-18T02:26:03;157053.62;;;18.40;75.48
46682;BME280;34101;53.430;-2.224;2022-08-18T02:28:30;157043.63;;;18.36;75.00
46682;BME280;34101;53.430;-2.224;2022-08-18T02:31:03;157040.38;;;18.35;75.00
46682;BME280;34101;53.430;-2.224;2022-08-18T02:33:31;157038.27;;;18.34;75.20
46682;BME280;34101;53.430;-2.224;2022-08-18T02:35:59;157041.28;;;18.35;75.11
46682;BME280;34101;53.430;-2.224;2022-08-18T02:38:26;157048.02;;;18.38;74.97
46682;BME280;34101;53.430;-2.224;2022-08-18T02:40:55;157052.48;;;18.40;74.74
46682;BME280;34101;53.430;-2.224;2022-08-18T02:43:22;157063.69;;;18.44;74.75
46682;BME280;34101;53.430;-2.224;2022-08-18T02:45:50;157065.88;;;18.45;74.44
46682;BME280;34101;53.430;-2.224;2022-08-18T02:48:17;157056.22;;;18.41;74.36
46682;BME280;34101;53.430;-2.224;2022-08-18T02:50:44;157055.24;;;18.41;74.39
46682;BME280;34101;53.430;-2.224;2022-08-18T02:53:12;157053.13;;;18.40;74.43
46682;BME280;34101;53.430;-2.224;2022-08-18T02:55:39;157048.91;;;18.38;74.56
46682;BME280;34101;53.430;-2.224;2022-08-18T02:58:07;157045.26;;;18.37;75.16
46682;BME280;34101;53.430;-2.224;2022-08-18T03:00:35;157025.68;;;18.29;76.65
46682;BME280;34101;53.430;-2.224;2022-08-18T03:03:02;157016.75;;;18.25;77.77
46682;BME280;34101;53.430;-2.224;2022-08-18T03:05:29;157035.51;;;18.33;77.60
46682;BME280;34101;53.430;-2.224;2022-08-18T03:07:56;157036.00;;;18.33;77.66
46682;BME280;34101;53.430;-2.224;2022-08-18T03:10:24;157036.65;;;18.33;77.91
46682;BME280;34101;53.430;-2.224;2022-08-18T03:12:51;157036.73;;;18.33;77.89
46682;BME280;34101;53.430;-2.224;2022-08-18T03:15:19;157022.11;;;18.28;78.46
46682;BME280;34101;53.430;-2.224;2022-08-18T03:17:46;157027.23;;;18.30;78.89
46682;BME280;34101;53.430;-2.224;2022-08-18T03:20:13;157032.59;;;18.32;78.62
46682;BME280;34101;53.430;-2.224;2022-08-18T03:22:41;157045.34;;;18.37;78.81
46682;BME280;34101;53.430;-2.224;2022-08-18T03:25:08;157028.85;;;18.30;78.83
46682;BME280;34101;53.430;-2.224;2022-08-18T03:27:35;157010.50;;;18.23;79.87
46682;BME280;34101;53.430;-2.224;2022-08-18T03:30:04;156982.97;;;18.12;79.81
46682;BME280;34101;53.430;-2.224;2022-08-18T03:32:32;156974.77;;;18.09;80.99
46682;BME280;34101;53.430;-2.224;2022-08-18T03:34:59;156972.82;;;18.08;80.77
46682;BME280;34101;53.430;-2.224;2022-08-18T03:37:27;156984.11;;;18.12;80.36
46682;BME280;34101;53.430;-2.224;2022-08-18T03:39:54;157001.57;;;18.19;79.70
46682;BME280;34101;53.430;-2.224;2022-08-18T03:42:22;157009.04;;;18.22;79.56
46682;BME280;34101;53.430;-2.224;2022-08-18T03:44:49;157020.08;;;18.27;79.21
46682;BME280;34101;53.430;-2.224;2022-08-18T03:47:17;157036.08;;;18.33;79.18
46682;BME280;34101;53.430;-2.224;2022-08-18T03:49:45;157017.32;;;18.26;79.17
46682;BME280;34101;53.430;-2.224;2022-08-18T03:52:11;157005.30;;;18.21;79.31
46682;BME280;34101;53.430;-2.224;2022-08-18T03:54:39;156996.45;;;18.17;79.46
46682;BME280;34101;53.430;-2.224;2022-08-18T03:57:07;156999.13;;;18.18;79.78
46682;BME280;34101;53.430;-2.224;2022-08-18T03:59:34;156998.80;;;18.18;79.64
46682;BME280;34101;53.430;-2.224;2022-08-18T04:02:03;157016.91;;;18.25;79.14
46682;BME280;34101;53.430;-2.224;2022-08-18T04:04:31;156994.91;;;18.17;79.50
46682;BME280;34101;53.430;-2.224;2022-08-18T04:07:02;156994.99;;;18.17;79.76
46682;BME280;34101;53.430;-2.224;2022-08-18T04:09:30;156984.27;;;18.12;80.42
46682;BME280;34101;53.430;-2.224;2022-08-18T04:12:03;156988.17;;;18.14;80.06
46682;BME280;34101;53.430;-2.224;2022-08-18T04:14:30;157000.51;;;18.19;79.49
46682;BME280;34101;53.430;-2.224;2022-08-18T04:16:58;157002.62;;;18.20;79.43
46682;BME280;34101;53.430;-2.224;2022-08-18T04:19:25;157021.22;;;18.27;79.33
46682;BME280;34101;53.430;-2.224;2022-08-18T04:21:53;157039.33;;;18.34;78.35
46682;BME280;34101;53.430;-2.224;2022-08-18T04:24:21;157053.94;;;18.40;77.74
46682;BME280;34101;53.430;-2.224;2022-08-18T04:26:48;157053.05;;;18.40;77.36
46682;BME280;34101;53.430;-2.224;2022-08-18T04:29:18;157064.67;;;18.45;77.52
46682;BME280;34101;53.430;-2.224;2022-08-18T04:31:46;157079.37;;;18.51;77.37
46682;BME280;34101;53.430;-2.224;2022-08-18T04:34:14;157074.65;;;18.49;76.95
46682;BME280;34101;53.430;-2.224;2022-08-18T04:36:42;157059.06;;;18.42;76.90
46682;BME280;34101;53.430;-2.224;2022-08-18T04:39:11;157039.90;;;18.35;77.32
46682;BME280;34101;53.430;-2.224;2022-08-18T04:41:41;157045.58;;;18.37;78.07
46682;BME280;34101;53.430;-2.224;2022-08-18T04:44:10;157062.07;;;18.44;77.08
46682;BME280;34101;53.430;-2.224;2022-08-18T04:46:40;157067.35;;;18.46;76.90
46682;BME280;34101;53.430;-2.224;2022-08-18T04:49:08;157056.38;;;18.41;77.51
46682;BME280;34101;53.430;-2.224;2022-08-18T04:51:40;157039.41;;;18.34;77.39
46682;BME280;34101;53.430;-2.224;2022-08-18T04:54:08;157033.32;;;18.32;77.63
46682;BME280;34101;53.430;-2.224;2022-08-18T04:56:37;157044.61;;;18.37;77.10
46682;BME280;34101;53.430;-2.224;2022-08-18T04:59:07;157057.68;;;18.42;76.59
46682;BME280;34101;53.430;-2.224;2022-08-18T05:01:36;157064.50;;;18.45;76.80
46682;BME280;34101;53.430;-2.224;2022-08-18T05:04:04;157069.05;;;18.46;77.04
46682;BME280;34101;53.430;-2.224;2022-08-18T05:06:31;157074.65;;;18.49;77.06
46682;BME280;34101;53.430;-2.224;2022-08-18T05:09:00;157066.45;;;18.45;76.97
46682;BME280;34101;53.430;-2.224;2022-08-18T05:11:29;157059.47;;;18.43;76.90
46682;BME280;34101;53.430;-2.224;2022-08-18T05:13:57;157032.67;;;18.32;78.31
46682;BME280;34101;53.430;-2.224;2022-08-18T05:16:25;157035.51;;;18.33;78.12
46682;BME280;34101;53.430;-2.224;2022-08-18T05:18:53;156978.75;;;18.10;80.72
46682;BME280;34101;53.430;-2.224;2022-08-18T05:21:21;156876.12;;;17.69;85.10
46682;BME280;34101;53.430;-2.224;2022-08-18T05:23:49;156761.99;;;17.23;91.05
46682;BME280;34101;53.430;-2.224;2022-08-18T05:26:17;156711.11;;;17.03;100.00
46682;BME280;34101;53.430;-2.224;2022-08-18T05:28:45;156682.87;;;16.91;100.00
46682;BME280;34101;53.430;-2.224;2022-08-18T05:31:15;156656.17;;;16.81;100.00
46682;BME280;34101;53.430;-2.224;2022-08-18T05:33:44;156623.15;;;16.67;100.00
46682;BME280;34101;53.430;-2.224;2022-08-18T05:36:21;156615.85;;;16.65;100.00
46682;BME280;34101;53.430;-2.224;2022-08-18T05:38:57;156613.33;;;16.64;100.00
46682;BME280;34101;53.430;-2.224;2022-08-18T05:41:29;156628.75;;;16.70;100.00
46682;BME280;34101;53.430;-2.224;2022-08-18T05:43:59;156639.70;;;16.74;100.00
46682;BME280;34101;53.430;-2.224;2022-08-18T05:46:33;156638.81;;;16.74;100.00
46682;BME280;34101;53.430;-2.224;2022-08-18T05:49:04;156636.21;;;16.73;100.00
46682;BME280;34101;53.430;-2.224;2022-08-18T05:51:37;156641.73;;;16.75;100.00
46682;BME280;34101;53.430;-2.224;2022-08-18T05:54:06;156665.99;;;16.85;100.00
46682;BME280;34101;53.430;-2.224;2022-08-18T05:56:36;156681.57;;;16.91;100.00
46682;BME280;34101;53.430;-2.224;2022-08-18T05:59:04;156692.93;;;16.95;100.00
46682;BME280;34101;53.430;-2.224;2022-08-18T06:01:41;156722.96;;;17.08;100.00
46682;BME280;34101;53.430;-2.224;2022-08-18T06:04:16;156736.92;;;17.13;100.00
46682;BME280;34101;53.430;-2.224;2022-08-18T06:06:46;156741.87;;;17.15;100.00
46682;BME280;34101;53.430;-2.224;2022-08-18T06:09:20;156751.28;;;17.19;100.00
46682;BME280;34101;53.430;-2.224;2022-08-18T06:11:59;156756.15;;;17.21;100.00
46682;BME280;34101;53.430;-2.224;2022-08-18T06:14:28;156759.48;;;17.22;100.00
46682;BME280;34101;53.430;-2.224;2022-08-18T06:17:02;156769.54;;;17.26;100.00
46682;BME280;34101;53.430;-2.224;2022-08-18T06:19:42;156740.65;;;17.15;100.00
46682;BME280;34101;53.430;-2.224;2022-08-18T06:22:16;156732.21;;;17.11;100.00
46682;BME280;34101;53.430;-2.224;2022-08-18T06:24:51;156737.89;;;17.14;100.00
46682;BME280;34101;53.430;-2.224;2022-08-18T06:27:26;156744.14;;;17.16;100.00
46682;BME280;34101;53.430;-2.224;2022-08-18T06:30:02;156735.54;;;17.13;100.00
46682;BME280;34101;53.430;-2.224;2022-08-18T06:32:46;156745.28;;;17.17;100.00
46682;BME280;34101;53.430;-2.224;2022-08-18T06:35:27;156740.65;;;17.15;100.00
46682;BME280;34101;53.430;-2.224;2022-08-18T06:38:06;156752.26;;;17.19;100.00
46682;BME280;34101;53.430;-2.224;2022-08-18T06:40:35;156754.85;;;17.20;100.00
46682;BME280;34101;53.430;-2.224;2022-08-18T06:43:04;156756.56;;;17.21;100.00
46682;BME280;34101;53.430;-2.224;2022-08-18T06:45:35;156757.37;;;17.21;100.00
46682;BME280;34101;53.430;-2.224;2022-08-18T06:48:06;156745.52;;;17.17;100.00
46682;BME280;34101;53.430;-2.224;2022-08-18T06:50:44;156758.02;;;17.22;100.00
46682;BME280;34101;53.430;-2.224;2022-08-18T06:53:14;156771.49;;;17.27;100.00
46682;BME280;34101;53.430;-2.224;2022-08-18T06:55:45;156781.23;;;17.31;100.00
46682;BME280;34101;53.430;-2.224;2022-08-18T06:58:23;156791.05;;;17.35;100.00
46682;BME280;34101;53.430;-2.224;2022-08-18T07:00:55;156790.56;;;17.35;100.00
46682;BME280;34101;53.430;-2.224;2022-08-18T07:03:42;156809.88;;;17.42;100.00
46682;BME280;34101;53.430;-2.224;2022-08-18T07:06:23;156805.90;;;17.41;100.00
46682;BME280;34101;53.430;-2.224;2022-08-18T07:08:52;156776.77;;;17.29;100.00
46682;BME280;34101;53.430;-2.224;2022-08-18T07:11:23;156761.02;;;17.23;100.00
46682;BME280;34101;53.430;-2.224;2022-08-18T07:13:52;156768.57;;;17.26;100.00
46682;BME280;34101;53.430;-2.224;2022-08-18T07:16:23;156799.65;;;17.38;100.00
46682;BME280;34101;53.430;-2.224;2022-08-18T07:18:50;156827.25;;;17.49;100.00
46682;BME280;34101;53.430;-2.224;2022-08-18T07:21:27;156841.46;;;17.55;100.00
46682;BME280;34101;53.430;-2.224;2022-08-18T07:24:00;156839.02;;;17.54;100.00
46682;BME280;34101;53.430;-2.224;2022-08-18T07:26:28;156844.14;;;17.56;100.00
46682;BME280;34101;53.430;-2.224;2022-08-18T07:29:12;156848.93;;;17.58;100.00
46682;BME280;34101;53.430;-2.224;2022-08-18T07:31:41;156845.60;;;17.57;100.00
46682;BME280;34101;53.430;-2.224;2022-08-18T07:34:14;156858.91;;;17.62;100.00
46682;BME280;34101;53.430;-2.224;2022-08-18T07:36:48;156849.98;;;17.59;100.00
46682;BME280;34101;53.430;-2.224;2022-08-18T07:39:21;156894.14;;;17.76;100.00
46682;BME280;34101;53.430;-2.224;2022-08-18T07:41:51;156936.44;;;17.93;100.00
46682;BME280;34101;53.430;-2.224;2022-08-18T07:44:24;156963.32;;;18.04;100.00
46682;BME280;34101;53.430;-2.224;2022-08-18T07:46:56;156981.43;;;18.11;100.00
46682;BME280;34101;53.430;-2.224;2022-08-18T07:49:30;157016.51;;;18.25;100.00
46682;BME280;34101;53.430;-2.224;2022-08-18T07:52:04;157017.64;;;18.26;100.00
46682;BME280;34101;53.430;-2.224;2022-08-18T07:54:43;157025.68;;;18.29;100.00
46682;BME280;34101;53.430;-2.224;2022-08-18T07:57:16;157023.65;;;18.28;100.00
46682;BME280;34101;53.430;-2.224;2022-08-18T07:59:52;157024.79;;;18.29;100.00
46682;BME280;34101;53.430;-2.224;2022-08-18T08:02:34;157019.19;;;18.26;100.00
46682;BME280;34101;53.430;-2.224;2022-08-18T08:05:10;157038.60;;;18.34;100.00
46682;BME280;34101;53.430;-2.224;2022-08-18T08:07:45;157114.29;;;18.65;100.00
46682;BME280;34101;53.430;-2.224;2022-08-18T08:10:27;157202.75;;;19.00;100.00
46682;BME280;34101;53.430;-2.224;2022-08-18T08:13:04;157267.67;;;19.26;100.00
46682;BME280;34101;53.430;-2.224;2022-08-18T08:15:47;157296.92;;;19.38;100.00
46682;BME280;34101;53.430;-2.224;2022-08-18T08:18:24;157321.46;;;19.48;100.00
46682;BME280;34101;53.430;-2.224;2022-08-18T08:20:59;157365.18;;;19.65;100.00
46682;BME280;34101;53.430;-2.224;2022-08-18T08:23:32;157399.96;;;19.79;100.00
46682;BME280;34101;53.430;-2.224;2022-08-18T08:26:18;157406.79;;;19.82;100.00
46682;BME280;34101;53.430;-2.224;2022-08-18T08:28:56;157482.87;;;20.12;100.00
46682;BME280;34101;53.430;-2.224;2022-08-18T08:31:33;157562.62;;;20.44;98.80
46682;BME280;34101;53.430;-2.224;2022-08-18T08:34:15;157509.69;;;20.23;97.44
46682;BME280;34101;53.430;-2.224;2022-08-18T08:36:45;157451.57;;;20.00;98.92
46682;BME280;34101;53.430;-2.224;2022-08-18T08:39:19;157406.54;;;19.82;97.98
46682;BME280;34101;53.430;-2.224;2022-08-18T08:41:52;157379.32;;;19.71;98.32
46682;BME280;34101;53.430;-2.224;2022-08-18T08:44:23;157367.70;;;19.66;98.49
46682;BME280;34101;53.430;-2.224;2022-08-18T08:46:57;157352.09;;;19.60;99.14
46682;BME280;34101;53.430;-2.224;2022-08-18T08:49:34;157369.97;;;19.67;97.26
46682;BME280;34101;53.430;-2.224;2022-08-18T08:52:10;157344.78;;;19.57;96.59
46682;BME280;34101;53.430;-2.224;2022-08-18T08:54:46;157338.28;;;19.54;98.15
46682;BME280;34101;53.430;-2.224;2022-08-18T08:57:17;157408.74;;;19.83;95.53
46682;BME280;34101;53.430;-2.224;2022-08-18T08:59:47;157436.45;;;19.94;96.50
46682;BME280;34101;53.430;-2.224;2022-08-18T09:02:30;157470.02;;;20.07;92.50
46682;BME280;34101;53.430;-2.224;2022-08-18T09:05:04;157464.42;;;20.05;92.24
46682;BME280;34101;53.430;-2.224;2022-08-18T09:07:46;157511.97;;;20.24;90.81
46682;BME280;34101;53.430;-2.224;2022-08-18T09:12:56;157547.66;;;20.38;88.32
46682;BME280;34101;53.430;-2.224;2022-08-18T09:15:41;157530.34;;;20.31;89.35
46682;BME280;34101;53.430;-2.224;2022-08-18T09:19:05;157390.21;;;19.75;90.22
46682;BME280;34101;53.430;-2.224;2022-08-18T09:21:40;157515.46;;;20.25;87.79
46682;BME280;34101;53.430;-2.224;2022-08-18T09:24:23;157590.42;;;20.55;84.67
46682;BME280;34101;53.430;-2.224;2022-08-18T09:26:53;157557.66;;;20.42;83.29
46682;BME280;34101;53.430;-2.224;2022-08-18T09:29:49;157631.00;;;20.72;82.51
46682;BME280;34101;53.430;-2.224;2022-08-18T09:32:55;157624.82;;;20.69;81.55
46682;BME280;34101;53.430;-2.224;2022-08-18T09:35:40;157592.13;;;20.56;81.78
46682;BME280;34101;53.430;-2.224;2022-08-18T09:38:16;157637.75;;;20.74;82.69
46682;BME280;34101;53.430;-2.224;2022-08-18T09:40:48;157621.73;;;20.68;80.08
46682;BME280;34101;53.430;-2.224;2022-08-18T09:43:31;157604.81;;;20.61;79.49
46682;BME280;34101;53.430;-2.224;2022-08-18T09:46:01;157610.83;;;20.64;80.48
46682;BME280;34101;53.430;-2.224;2022-08-18T09:48:31;157673.04;;;20.88;77.81
46682;BME280;34101;53.430;-2.224;2022-08-18T09:51:34;157717.76;;;21.06;75.97
46682;BME280;34101;53.430;-2.224;2022-08-18T09:54:13;157761.60;;;21.24;75.46
46682;BME280;34101;53.430;-2.224;2022-08-18T09:57:46;157840.99;;;21.56;72.77
46682;BME280;34101;53.430;-2.224;2022-08-18T10:00:25;157937.15;;;21.94;71.27
46682;BME280;34101;53.430;-2.224;2022-08-18T10:03:11;157968.80;;;22.07;69.65
46682;BME280;34101;53.430;-2.224;2022-08-18T10:05:54;158001.19;;;22.20;68.53
46682;BME280;34101;53.430;-2.224;2022-08-18T10:08:51;157963.68;;;22.05;70.55
46682;BME280;34101;53.430;-2.224;2022-08-18T10:11:30;158119.76;;;22.67;69.80
46682;BME280;34101;53.430;-2.224;2022-08-18T10:14:18;158016.00;;;22.26;68.64
46682;BME280;34101;53.430;-2.224;2022-08-18T10:16:57;158001.68;;;22.20;70.02
46682;BME280;34101;53.430;-2.224;2022-08-18T10:19:33;157907.46;;;21.82;69.82
46682;BME280;34101;53.430;-2.224;2022-08-18T10:22:07;157909.41;;;21.83;67.87
46682;BME280;34101;53.430;-2.224;2022-08-18T10:24:38;157875.81;;;21.70;69.74
46682;BME280;34101;53.430;-2.224;2022-08-18T10:27:13;157768.27;;;21.27;71.42
46682;BME280;34101;53.430;-2.224;2022-08-18T10:30:00;157822.52;;;21.48;71.85
46682;BME280;34101;53.430;-2.224;2022-08-18T10:32:39;157827.41;;;21.50;71.29
46682;BME280;34101;53.430;-2.224;2022-08-18T10:35:56;157846.20;;;21.58;71.18
46682;BME280;34101;53.430;-2.224;2022-08-18T10:38:27;157854.90;;;21.61;69.62
46682;BME280;34101;53.430;-2.224;2022-08-18T10:41:05;157824.48;;;21.49;70.11
46682;BME280;34101;53.430;-2.224;2022-08-18T10:43:38;157811.54;;;21.44;69.94
46682;BME280;34101;53.430;-2.224;2022-08-18T10:46:15;157705.08;;;21.01;70.05
46682;BME280;34101;53.430;-2.224;2022-08-18T10:48:43;157754.36;;;21.21;67.71
46682;BME280;34101;53.430;-2.224;2022-08-18T10:51:17;157762.90;;;21.24;66.65
46682;BME280;34101;53.430;-2.224;2022-08-18T10:53:51;157776.00;;;21.30;67.74
46682;BME280;34101;53.430;-2.224;2022-08-18T10:56:28;157639.45;;;20.75;69.51
46682;BME280;34101;53.430;-2.224;2022-08-18T10:59:06;157684.67;;;20.93;69.35
46682;BME280;34101;53.430;-2.224;2022-08-18T11:01:52;157744.03;;;21.17;68.86
46682;BME280;34101;53.430;-2.224;2022-08-18T11:04:27;157756.31;;;21.22;67.53
46682;BME280;34101;53.430;-2.224;2022-08-18T11:07:08;157707.76;;;21.02;67.62
46682;BME280;34101;53.430;-2.224;2022-08-18T11:09:38;157746.72;;;21.18;68.34
46682;BME280;34101;53.430;-2.224;2022-08-18T11:12:06;157728.91;;;21.11;68.92
46682;BME280;34101;53.430;-2.224;2022-08-18T11:14:53;157775.27;;;21.29;67.79
46682;BME280;34101;53.430;-2.224;2022-08-18T11:17:33;157789.74;;;21.35;68.46
46682;BME280;34101;53.430;-2.224;2022-08-18T11:20:08;157753.06;;;21.20;68.85
46682;BME280;34101;53.430;-2.224;2022-08-18T11:22:37;157741.35;;;21.16;68.90
46682;BME280;34101;53.430;-2.224;2022-08-18T11:25:19;157733.87;;;21.13;69.42
46682;BME280;34101;53.430;-2.224;2022-08-18T11:27:48;157727.60;;;21.10;69.10
46682;BME280;34101;53.430;-2.224;2022-08-18T11:30:16;157675.88;;;20.90;70.34
46682;BME280;34101;53.430;-2.224;2022-08-18T11:32:44;157607.25;;;20.62;71.64
46682;BME280;34101;53.430;-2.224;2022-08-18T11:35:13;157648.80;;;20.79;71.34
46682;BME280;34101;53.430;-2.224;2022-08-18T11:37:45;157647.75;;;20.78;72.09
46682;BME280;34101;53.430;-2.224;2022-08-18T11:40:25;157629.61;;;20.71;73.04
46682;BME280;34101;53.430;-2.224;2022-08-18T11:42:58;157618.15;;;20.66;74.09
46682;BME280;34101;53.430;-2.224;2022-08-18T11:45:31;157678.73;;;20.91;71.39
46682;BME280;34101;53.430;-2.224;2022-08-18T11:48:08;157738.34;;;21.15;70.57
46682;BME280;34101;53.430;-2.224;2022-08-18T11:50:45;157884.43;;;21.73;68.60
46682;BME280;34101;53.430;-2.224;2022-08-18T11:53:15;157853.44;;;21.61;68.81
46682;BME280;34101;53.430;-2.224;2022-08-18T11:56:02;157879.31;;;21.71;69.37
46682;BME280;34101;53.430;-2.224;2022-08-18T11:58:38;157872.15;;;21.68;67.78
46682;BME280;34101;53.430;-2.224;2022-08-18T12:01:06;157823.91;;;21.49;68.52
46682;BME280;34101;53.430;-2.224;2022-08-18T12:03:38;157784.62;;;21.33;69.40
46682;BME280;34101;53.430;-2.224;2022-08-18T12:06:16;157777.54;;;21.30;69.70
46682;BME280;34101;53.430;-2.224;2022-08-18T12:08:51;157745.99;;;21.18;69.92
46682;BME280;34101;53.430;-2.224;2022-08-18T12:11:23;157817.48;;;21.46;68.86
46682;BME280;34101;53.430;-2.224;2022-08-18T12:14:04;157816.51;;;21.46;69.11
46682;BME280;34101;53.430;-2.224;2022-08-18T12:16:35;157855.31;;;21.61;68.14
46682;BME280;34101;53.430;-2.224;2022-08-18T12:19:05;157874.75;;;21.69;68.87
46682;BME280;34101;53.430;-2.224;2022-08-18T12:21:36;157966.85;;;22.06;67.22
46682;BME280;34101;53.430;-2.224;2022-08-18T12:24:04;157985.16;;;22.13;66.60
46682;BME280;34101;53.430;-2.224;2022-08-18T12:26:32;157995.09;;;22.17;66.77
46682;BME280;34101;53.430;-2.224;2022-08-18T12:28:59;158097.79;;;22.58;64.81
46682;BME280;34101;53.430;-2.224;2022-08-18T12:31:27;158111.38;;;22.64;64.96
46682;BME280;34101;53.430;-2.224;2022-08-18T12:33:54;158127.98;;;22.71;63.13
46682;BME280;34101;53.430;-2.224;2022-08-18T12:36:21;158149.39;;;22.79;64.15
46682;BME280;34101;53.430;-2.224;2022-08-18T12:38:48;158110.49;;;22.64;64.12
46682;BME280;34101;53.430;-2.224;2022-08-18T12:41:16;158059.21;;;22.43;62.73
46682;BME280;34101;53.430;-2.224;2022-08-18T12:43:44;158081.59;;;22.52;63.09
46682;BME280;34101;53.430;-2.224;2022-08-18T12:46:11;158071.99;;;22.48;63.06
46682;BME280;34101;53.430;-2.224;2022-08-18T12:48:39;158175.44;;;22.90;61.82
46682;BME280;34101;53.430;-2.224;2022-08-18T12:51:07;158210.28;;;23.03;61.98
46682;BME280;34101;53.430;-2.224;2022-08-18T12:53:33;158163.56;;;22.85;62.45
46682;BME280;34101;53.430;-2.224;2022-08-18T12:56:01;158105.19;;;22.61;63.24
46682;BME280;34101;53.430;-2.224;2022-08-18T12:58:28;158144.59;;;22.77;62.20
46682;BME280;34101;53.430;-2.224;2022-08-18T13:00:56;158028.78;;;22.31;64.62
46682;BME280;34101;53.430;-2.224;2022-08-18T13:03:24;158125.14;;;22.69;63.13
46682;BME280;34101;53.430;-2.224;2022-08-18T13:05:51;158098.44;;;22.59;63.32
46682;BME280;34101;53.430;-2.224;2022-08-18T13:08:20;158134.74;;;22.73;62.83